Stephen Martin

Chefscout - Bolton Wanderers
4 Apr 2027
Sonntag
Verarbeitung

Persönlichkeit

Anpassungsfähigkeit (18) Ehrgeiz (3) Kontroverse (15) Loyalität (6) Druck (3) Professionalität (7) Fairness (10) Temperament (14)

Profil

Trainerstil Demokratisch
Lizenz Kontinentale Pro
Entschlossenheit 7
Menschenführung 9
Motivation 6
Disziplin 8
Arbeitszufriedenheit
49%
Ermüdung
0%
Rolle Chefscout
Gehalt 32.3K p/W
Vertrag 14.03.2030

Leistung

Verhalten Normal
Trainingseffektivität
18%
Spielerentwicklung
20%
Verletzungsprävention
60%
Taktische Umsetzung
30%

Letzte Ereignisse

Spieler begutachtet jetzt
Nahm an einer Scouting-Besprechung teil jetzt
Spieler begutachtet jetzt
Spieler begutachtet jetzt
Spieler begutachtet jetzt
Spieler begutachtet jetzt
Spieler begutachtet 7T her
Spieler begutachtet 7T her

Aktuell beobachtet

160
Spieler Verein Status Fähigkeit Vertrauen Beobachtet Zuletzt beobachtet Letzte Stimme
Gift Isioma Warri Wolves Aktiv 73 / 83 40% 2 03.04.2027 -
Diogo Sousa RC Strasbourg Aktiv 110 / 117 40% 2 03.04.2027 -
Simone Kosijer Triestina Aktiv 90 / 106 40% 4 03.04.2027 -
Tiago Freitas Benfica Aktiv 107 / 107 40% 5 02.04.2027 -
Matías Gómez Celta Aktiv 118 / 128 40% 1 02.04.2027 -
Davinchi Getafe Aktiv 107 / 121 40% 7 01.04.2027 -
Lucas Mbamba Westerlo Aktiv 90 / 89 40% 3 01.04.2027 -
Leo Pecover Bristol City Aktiv 89 / 106 40% 2 01.04.2027 -
Toni Tamarit Alverca Aktiv 107 / 123 40% 3 01.04.2027 -
Luis Otávio Seattle Sounders Aktiv 102 / 111 40% 1 01.04.2027 -
Sipho Ngqakabana FC Diarra Aktiv 83 / 82 40% 1 01.04.2027 -
Martim Cunha Porto Aktiv 99 / 106 40% 6 31.03.2027 -
Duarte Cunha Porto Aktiv 95 / 100 40% 2 31.03.2027 -
Gorka Gorosabel Real Sociedad Aktiv 98 / 121 40% 1 31.03.2027 -
Bautista Carboni Basaksehir Aktiv 116 / 106 40% 2 30.03.2027 -
Cundo Leicester City Aktiv 129 / 136 40% 4 30.03.2027 -
Alexander Røssing-Lelesiit Hamburger SV Aktiv 119 / 113 40% 1 30.03.2027 -
Bernardo Lima Porto Aktiv 98 / 107 40% 5 29.03.2027 -
Gonçalo Oliveira Benfica Aktiv 116 / 123 40% 4 29.03.2027 -
Augusto Bando Ascoli Aktiv 108 / 105 40% 1 29.03.2027 -
Andrija Bulatović RC Lens Aktiv 115 / 121 40% 4 28.03.2027 -
David Damboama El-Kanemi Warriors Aktiv 80 / 90 40% 2 28.03.2027 -
Ibrahim Sabiu Bendel Insurance Aktiv 81 / 87 40% 1 28.03.2027 -
James Dornelly Peterborough United Aktiv 94 / 106 40% 10 26.03.2027 -
Sergey Chernov Zenit Aktiv 71 / 72 40% 5 26.03.2027 -
Vanja Dragojević Partizan Aktiv 117 / 114 40% 1 26.03.2027 -
Samuele di Benedetto Charlton Athletic Aktiv 105 / 111 40% 2 25.03.2027 -
Samuel Lucero Defensa y Justicia Aktiv 117 / 126 40% 1 25.03.2027 -
Surprise Manthosi Polokwane City Aktiv 98 / 105 40% 1 25.03.2027 -
André Miranda Porto Aktiv 93 / 99 40% 1 25.03.2027 -
Riyad Idrissi Cagliari Aktiv 129 / 128 40% 3 23.03.2027 -
Sabil Hansen Randers Aktiv 97 / 114 40% 1 23.03.2027 -
Luca Barani Forli Aktiv 79 / 99 40% 5 22.03.2027 -
Marius Courcoul Angers SCO Aktiv 106 / 120 40% 1 22.03.2027 -
Vinícius Lira Santos Aktiv 115 / 121 40% 4 21.03.2027 -
Jaygo van Ommeren Utrecht Aktiv 106 / 113 40% 5 21.03.2027 -
Mathis Amougou RC Strasbourg Aktiv 110 / 114 40% 1 20.03.2027 -
Mattia Rutigliano Pro Vercelli Aktiv 106 / 100 40% 1 20.03.2027 -
Molemo Seemela FC Diarra Aktiv 82 / 76 40% 1 20.03.2027 -
Jakub Jendryka Ruch Aktiv 93 / 94 40% 3 17.03.2027 -
Riccardo De Zen Renate Aktiv 98 / 106 40% 3 16.03.2027 -
Elias Lenz Huesca Aktiv 87 / 93 40% 1 16.03.2027 -
Asanele Bonani Chippa United Aktiv 91 / 103 40% 1 16.03.2027 -
Daniel Awuni Aduana Stars Aktiv 97 / 95 40% 1 16.03.2027 -
Cemran Dansin Orlando Pirates Aktiv 115 / 109 40% 4 13.03.2027 -
Jake Batty Burton Albion Aktiv 97 / 110 40% 3 11.03.2027 -
Thiago Helguera Braga Aktiv 115 / 135 40% 1 11.03.2027 -
Karim Coulibaly RC Strasbourg Aktiv 126 / 121 40% 3 10.03.2027 -
Nikita Kononenko Metallurg Aktiv 66 / 73 40% 1 09.03.2027 -
Isaac Frimpong Hearts of Oak Aktiv 80 / 80 40% 1 08.03.2027 -
Joseph Jones Kryvbas Aktiv 81 / 107 40% 1 08.03.2027 -
Mfundo Vilakazi Kaizer Chiefs Aktiv 109 / 105 40% 2 07.03.2027 -
Leandro Martins Benfica Aktiv 99 / 95 40% 1 07.03.2027 -
Luke Baartman Chippa United Aktiv 93 / 115 40% 10 05.03.2027 -
Isaac England Shrewsbury Town Aktiv 93 / 95 40% 2 05.03.2027 -
Ilja Ishkov Ural Aktiv 89 / 113 40% 1 05.03.2027 -
Bradley de Jesus Tondela Aktiv 92 / 98 40% 1 02.03.2027 -
Fuzy Taylor Medeama Aktiv 82 / 94 40% 3 01.03.2027 -
Federico Valentini Forli Aktiv 96 / 97 40% 1 01.03.2027 -
Godwin Oham Warri Wolves Aktiv 95 / 92 40% 3 26.02.2027 -
Nikola Tasić Spartak Subotica Aktiv 92 / 89 40% 1 26.02.2027 -
Lander Astiazarán Real Sociedad Aktiv 97 / 118 40% 2 25.02.2027 -
Juan Morán Alavés Aktiv 99 / 122 40% 2 23.02.2027 -
Bohdan Budko AZ Aktiv 115 / 120 40% 1 22.02.2027 -
Mpho Khethang AS Police Aktiv 85 / 77 40% 1 20.02.2027 -
Maldini Kacurri Grimsby Town Aktiv 101 / 102 40% 3 19.02.2027 -
Raymond Agyemang Aduana Stars Aktiv 83 / 89 40% 2 19.02.2027 -
Keagan Hlatshwayo SuperSport United Aktiv 113 / 113 40% 1 19.02.2027 -
Lucan Louw AS Police Aktiv 87 / 78 40% 5 17.02.2027 -
Osvald Søe San Diego Football Club Aktiv 83 / 95 40% 1 17.02.2027 -
Luther Ngcobo Ajax Cape Town Aktiv 100 / 107 40% 2 13.02.2027 -
Roger Hinojo Espanyol Aktiv 116 / 127 40% 3 12.02.2027 -
Mads Abrahamsen Metallurg Aktiv 75 / 92 40% 1 12.02.2027 -
Simphiwe Selepe Orlando Pirates Aktiv 113 / 122 40% 4 11.02.2027 -
Nhlanhla Gasa AS Police Aktiv 78 / 85 40% 1 04.02.2027 -
Kwandakwesizwe Madonsela Golden Arrows Aktiv 67 / 96 40% 1 03.02.2027 -
Gia Nadareishvili AS Trencin Aktiv 103 / 105 40% 2 01.02.2027 -
Pedro Vian Seewald Cavese Aktiv 86 / 104 40% 1 31.01.2027 -
Kian Best Tondela Aktiv 90 / 100 40% 1 26.01.2027 -
Vasyl Bundash Epicentr Aktiv 88 / 90 40% 1 26.01.2027 -
Kieran Chandler Minnesota United FC Aktiv 78 / 95 40% 1 26.01.2027 -
Elie N'Gatta Sochaux Aktiv 95 / 104 40% 1 18.01.2027 -
Kyle John Port Vale Verloren 96 / 103 65% 1 11.01.2027 Befürworten
Andrey Estupiñán Millonarios Abgelehnt 120 / 120 66% 1 01.01.2027 Ablehnen
Dani Ángel Crawley Town Aktiv 83 / 103 40% 5 30.12.2026 -
Alagie Wally Veres Aktiv 98 / 82 40% 1 29.12.2026 -
Luis Fernando Santa Clara Aktiv 98 / 110 40% 1 29.12.2026 -
Alex Valencia Santos Laguna Aktiv 78 / 89 40% 1 29.12.2026 -
Donnell McNeilly Nottingham Forest Aktiv 117 / 109 40% 1 28.12.2026 -
Trévis Dago Stade Lavallois Aktiv 111 / 116 40% 2 27.12.2026 -
Angelos Neofytou Omonoia Aktiv 103 / 95 40% 1 27.12.2026 -
Abubakar Garba Nasarawa United Aktiv 84 / 101 40% 6 26.12.2026 -
Luther Zwane Platinum Stars Aktiv 98 / 105 40% 14 26.12.2026 -
Kauã Elias Shakhtar Aktiv 142 / 139 40% 5 23.12.2026 -
Matvii Ponomarenko Dynamo Kyiv Aktiv 101 / 134 40% 3 23.12.2026 -
Kabu Agyemang Raymond Bechem United Aktiv 75 / 83 40% 4 22.12.2026 -
Oumar Camara Vitoria Guimaraes Aktiv 121 / 132 40% 5 22.12.2026 -
Maksym Uhryniuk Nyva Aktiv 75 / 92 40% 1 18.12.2026 -
Jalal Abdullai Molde Aktiv 117 / 119 40% 4 16.12.2026 -
Ezekiel Kwame Alladoh Philadelphia Union Abgelehnt 125 / 134 40% 12 13.12.2026 Ablehnen
Rocco Vata Watford Aktiv 124 / 118 40% 1 12.12.2026 -
Santiago Sandoval Guadalajara Aktiv 80 / 86 40% 1 12.12.2026 -
Justin-Noël Kalumba Mallorca Aktiv 117 / 112 40% 4 11.12.2026 -
Ciprian Coman Pandurii Aktiv 117 / 111 40% 7 10.12.2026 -
Ben Ahmed Kohili Paradou Aktiv 91 / 115 40% 1 09.12.2026 -
Prince Chibuzor Emmanuel Zlin Aktiv 91 / 98 40% 1 09.12.2026 -
Daniel Braut Tromso Aktiv 109 / 102 40% 2 08.12.2026 -
Julián Vignolo Toulouse FC Aktiv 112 / 110 40% 1 08.12.2026 -
Andrey Domotsev Mashuk Aktiv 83 / 99 40% 2 07.12.2026 -
Ichem Ferrah Pisa Aktiv 103 / 111 40% 1 07.12.2026 -
Tiago Pucciarelli FK Senica Aktiv 109 / 101 40% 3 06.12.2026 -
Marko Brkić NK Krka Aktiv 98 / 85 40% 1 06.12.2026 -
Marcel Reguła Zaglebie Aktiv 95 / 123 40% 3 03.12.2026 -
Dramane Kamagaté USM Alger Aktiv 107 / 112 40% 2 27.11.2026 -
Taha Ayari AIK Aktiv 114 / 113 40% 1 27.11.2026 -
Erik Flataker AIK Aktiv 111 / 120 40% 1 25.11.2026 -
Harrison Armstrong Everton Aktiv 124 / 123 40% 1 25.11.2026 -
Leonardo Barroso Chicago Fire Aktiv 117 / 115 40% 1 25.11.2026 -
Brooklyn Raines New England Revolution Aktiv 104 / 107 40% 2 23.11.2026 -
Dayann Methalie Sunderland Aktiv 124 / 127 40% 1 23.11.2026 -
Dominik Baumgartner Mattersburg Aktiv 96 / 102 40% 2 21.11.2026 -
Hassan Beja AFC Leopards Aktiv 83 / 83 40% 9 20.11.2026 -
Dimitris Rallis Legia Aktiv 117 / 119 40% 1 18.11.2026 -
Alexander Lyng SonderjyskE Aktiv 121 / 110 40% 5 16.11.2026 -
Awal Auta Nasarawa United Aktiv 85 / 83 40% 3 16.11.2026 -
David Kalokoh Ajax Aktiv 119 / 127 40% 1 13.11.2026 -
Anestis Mythou PAOK Aktiv 88 / 93 40% 1 12.11.2026 -
Darren Yapi Colorado Rapids Aktiv 100 / 120 40% 3 11.11.2026 -
Csanád Vilmos Dénes Debrecen Aktiv 94 / 115 40% 1 11.11.2026 -
Sergi Domínguez Dinamo Zagreb Aktiv 134 / 116 40% 1 09.11.2026 -
Daniel Banjaqui Benfica Abgelehnt 112 / 115 40% 1 09.11.2026 Mehr Infos nötig
Dilan Gerez River Plate Aktiv 86 / 105 40% 1 04.11.2026 -
Jeremiah Okine-Peters Salyut Aktiv 85 / 78 40% 2 03.11.2026 -
Naledi Hlongwane Victoria United Aktiv 94 / 94 40% 3 30.10.2026 -
Bogdan Petrović TSC Aktiv 102 / 106 40% 2 27.10.2026 -
Brandon Márquez Sarmiento Aktiv 99 / 107 40% 1 25.10.2026 -
Nicolás Azambuja Danubio Aktiv 116 / 124 40% 4 20.10.2026 -
Jack Grieves Watford Aktiv 103 / 99 40% 1 15.10.2026 -
Renzo Machado Liverpool Montevideo Aktiv 108 / 120 40% 2 12.10.2026 -
Inti López River Plate Aktiv 94 / 92 40% 1 12.10.2026 -
Adem Sipić Nashville SC Aktiv 77 / 93 40% 1 08.10.2026 -
Marcus Caldeira Minnesota United FC Aktiv 105 / 107 40% 3 05.10.2026 -
Ariath Piol Real Salt Lake Aktiv 93 / 109 40% 3 04.10.2026 -
Seymour Reid New York City Aktiv 92 / 107 40% 1 04.10.2026 -
Joseph Abah Remo Stars Aktiv 80 / 92 40% 1 29.09.2026 -
Dom Ballard Leyton Orient Aktiv 121 / 119 40% 2 20.09.2026 -
Jerónimo Russo Newell's Old Boys Aktiv 99 / 105 40% 2 18.09.2026 -
Maren Kefas Plateau United Aktiv 76 / 93 40% 2 17.09.2026 -
Patrick Preciado Deportivo Pasto Aktiv 109 / 100 40% 1 16.09.2026 -
Xavier Biscayzacú Defensor Sporting Aktiv 123 / 133 40% 1 16.09.2026 -
Archie Goodwin Charlotte Football Club Aktiv 104 / 120 40% 2 15.09.2026 -
Róyner Benítez Aguilas Doradas Aktiv 107 / 108 40% 3 14.09.2026 -
Gerardo Valenzuela FC Cincinnati Aktiv 86 / 102 40% 1 14.09.2026 -
Sergio Rondon Atletico Venezuela Aktiv 100 / 106 40% 1 30.08.2026 -
David Fernández O'Higgins Aktiv 98 / 119 40% 2 28.08.2026 -
Bruno Morales Cerro Aktiv 93 / 102 40% 1 25.08.2026 -
Bruno Caicedo Vancouver Whitecaps Aktiv 103 / 113 40% 1 14.08.2026 -
Chinedu Onyinjekwu Bayelsa United Aktiv 85 / 88 40% 1 12.08.2026 -
Micah Burton Austin FC Aktiv 82 / 103 40% 1 02.08.2026 -
Zidane Yañez Nashville SC Aktiv 69 / 101 40% 1 02.08.2026 -